Time;durP1;ratioP1;P1;durP2;ratioP2;P2;SDS_P1;SDS_P2;PMS_P1;PMS_P2;Temp;Humidity;BMP_temperature;BMP_pressure;BME280_temperature;BME280_humidity;BME280_pressure;Samples;Min_cycle;Max_cycle;Signal;HPM_P1;HPM_P2
2022/01/15 00:00:35;;;;;;;24.57;13.93;;;2.60;67.20;;;;;;4990253;28;20519;-84
2022/01/15 00:03:01;;;;;;;27.47;14.57;;;2.60;67.00;;;;;;4989058;28;20077;-84
2022/01/15 00:05:27;;;;;;;20.50;11.07;;;2.50;67.00;;;;;;4973353;28;20568;-84
2022/01/15 00:07:53;;;;;;;9.00;5.20;;;2.50;67.10;;;;;;4991255;28;20026;-84
2022/01/15 00:10:21;;;;;;;9.13;5.20;;;2.50;67.10;;;;;;4985300;28;20366;-84
2022/01/15 00:12:47;;;;;;;9.30;5.50;;;2.50;67.10;;;;;;4992940;28;20065;-84
2022/01/15 00:15:22;;;;;;;10.47;5.73;;;2.60;67.00;;;;;;4993736;28;20046;-84
2022/01/15 00:18:05;;;;;;;12.27;7.33;;;2.60;66.90;;;;;;5008287;28;20026;-85
2022/01/15 00:20:31;;;;;;;12.30;6.50;;;2.60;67.00;;;;;;5002658;28;20034;-85
2022/01/15 00:22:59;;;;;;;9.50;5.33;;;2.60;67.00;;;;;;4979300;28;20117;-84
2022/01/15 00:25:28;;;;;;;11.47;7.80;;;2.60;67.20;;;;;;4997897;28;20041;-85
2022/01/15 00:27:54;;;;;;;9.50;5.63;;;2.60;67.20;;;;;;4994926;28;20406;-85
2022/01/15 00:30:21;;;;;;;9.17;5.50;;;2.50;66.90;;;;;;4996320;28;20121;-84
2022/01/15 00:32:47;;;;;;;8.67;5.60;;;2.50;66.90;;;;;;4996687;28;20030;-84
2022/01/15 00:35:14;;;;;;;9.43;5.93;;;2.50;66.90;;;;;;5005876;28;20452;-84
2022/01/15 00:37:41;;;;;;;9.93;4.73;;;2.50;67.00;;;;;;4999740;28;20022;-84
2022/01/15 00:40:11;;;;;;;7.73;5.20;;;2.50;67.00;;;;;;4993940;28;20022;-84
2022/01/15 00:42:38;;;;;;;6.97;4.93;;;2.40;66.90;;;;;;4999542;28;20484;-84
2022/01/15 00:45:10;;;;;;;9.43;5.47;;;2.40;67.10;;;;;;5011481;28;20523;-84
2022/01/15 00:47:35;;;;;;;9.60;6.10;;;2.50;67.30;;;;;;4992986;28;20033;-84
2022/01/15 00:50:04;;;;;;;11.27;5.10;;;2.40;67.00;;;;;;4997764;28;20023;-84
2022/01/15 00:52:30;;;;;;;8.80;5.10;;;2.40;67.10;;;;;;5006951;28;20028;-85
2022/01/15 00:54:56;;;;;;;9.53;4.87;;;2.40;67.10;;;;;;4996113;28;20026;-84
2022/01/15 00:57:22;;;;;;;7.43;4.23;;;2.40;67.30;;;;;;4997834;28;20054;-84
2022/01/15 00:59:48;;;;;;;8.83;4.70;;;2.50;67.30;;;;;;4996103;28;20113;-85
2022/01/15 01:02:14;;;;;;;7.80;4.70;;;2.50;67.20;;;;;;4993184;28;20053;-84
2022/01/15 01:04:40;;;;;;;5.60;3.50;;;2.50;67.10;;;;;;4996160;28;20041;-84
2022/01/15 01:07:07;;;;;;;8.23;3.77;;;2.40;67.30;;;;;;5005913;28;20034;-84
2022/01/15 01:10:01;;;;;;;7.83;4.13;;;2.40;67.20;;;;;;5001522;28;20036;-84
2022/01/15 01:12:34;;;;;;;5.77;3.33;;;2.30;67.30;;;;;;5008098;28;20042;-85
2022/01/15 01:23:00;;;;;;;7.57;4.00;;;2.30;67.00;;;;;;5011214;28;20029;-84
2022/01/15 01:25:33;;;;;;;6.60;3.63;;;2.10;67.50;;;;;;4995490;28;20022;-85
2022/01/15 01:28:06;;;;;;;14.15;8.05;;;2.10;67.70;;;;;;4996186;28;20116;-84
2022/01/15 01:30:44;;;;;;;19.37;11.23;;;2.10;67.30;;;;;;4996549;28;20040;-85
2022/01/15 01:35:46;;;;;;;23.53;13.93;;;2.00;67.50;;;;;;5011087;28;20026;-84
2022/01/15 01:38:25;;;;;;;20.30;13.27;;;2.00;67.80;;;;;;5011785;28;20026;-84
2022/01/15 01:40:51;;;;;;;29.47;14.53;;;2.00;67.60;;;;;;5005900;28;20018;-84
2022/01/15 01:45:53;;;;;;;19.57;13.23;;;1.90;67.90;;;;;;5007933;28;20030;-84
2022/01/15 01:48:18;;;;;;;27.27;14.17;;;1.90;68.20;;;;;;5002520;28;20029;-84
2022/01/15 01:50:44;;;;;;;35.00;14.17;;;1.90;68.50;;;;;;4988645;28;20041;-84
2022/01/15 01:53:10;;;;;;;26.10;14.83;;;1.90;68.60;;;;;;4987624;28;20496;-84
2022/01/15 01:55:37;;;;;;;26.87;14.20;;;1.90;68.80;;;;;;4991448;28;20446;-84
2022/01/15 01:58:03;;;;;;;25.57;13.37;;;2.00;69.10;;;;;;5008069;28;20041;-84
2022/01/15 02:00:30;;;;;;;22.47;13.00;;;2.00;69.10;;;;;;4999380;28;20030;-84
2022/01/15 02:02:57;;;;;;;21.83;12.97;;;2.10;68.90;;;;;;4981794;28;20033;-84
2022/01/15 02:05:24;;;;;;;32.33;14.57;;;2.10;68.90;;;;;;4993490;28;20552;-84
2022/01/15 02:07:50;;;;;;;25.83;14.17;;;2.10;69.00;;;;;;4998821;28;20041;-85
2022/01/15 02:10:19;;;;;;;24.80;12.47;;;2.10;69.30;;;;;;4991154;28;20448;-84
2022/01/15 02:12:48;;;;;;;22.20;11.70;;;2.10;69.30;;;;;;4998668;28;20447;-84
2022/01/15 02:15:17;;;;;;;18.97;11.93;;;2.10;69.30;;;;;;5012168;28;20489;-84
2022/01/15 02:17:46;;;;;;;25.33;13.13;;;2.10;69.50;;;;;;4986854;28;20033;-84
2022/01/15 02:20:34;;;;;;;24.20;13.27;;;2.10;69.50;;;;;;4992005;28;20029;-84
2022/01/15 02:25:53;;;;;;;21.57;11.67;;;2.10;69.50;;;;;;5011253;28;20033;-84
2022/01/15 02:28:24;;;;;;;18.40;11.17;;;2.10;69.30;;;;;;5009357;28;20026;-82
2022/01/15 02:31:14;;;;;;;22.80;12.67;;;2.10;69.30;;;;;;4977117;28;20113;-83
2022/01/15 02:33:42;;;;;;;19.00;12.40;;;2.10;69.20;;;;;;4983772;28;20108;-83
2022/01/15 02:36:10;;;;;;;22.17;13.20;;;2.10;68.90;;;;;;4987294;28;20027;-84
2022/01/15 02:38:39;;;;;;;31.80;12.63;;;2.10;68.90;;;;;;4989924;28;20080;-84
2022/01/15 02:41:05;;;;;;;24.90;13.67;;;2.10;69.00;;;;;;5003921;28;20130;-84
2022/01/15 02:43:33;;;;;;;25.83;12.47;;;2.10;69.00;;;;;;4973021;28;20044;-84
2022/01/15 02:48:47;;;;;;;37.73;14.10;;;2.20;69.30;;;;;;5002687;28;20088;-84
2022/01/15 02:51:14;;;;;;;30.90;13.83;;;2.20;69.30;;;;;;4993773;28;20434;-84
2022/01/15 02:53:41;;;;;;;36.83;14.37;;;2.20;69.50;;;;;;5000069;28;20029;-84
2022/01/15 02:56:08;;;;;;;27.63;14.87;;;2.20;69.60;;;;;;4982341;28;20061;-84
2022/01/15 02:58:34;;;;;;;27.10;14.00;;;2.20;69.80;;;;;;4995212;28;20037;-84
2022/01/15 03:01:01;;;;;;;33.20;14.57;;;2.20;69.80;;;;;;5002524;28;20021;-84
2022/01/15 03:03:27;;;;;;;31.10;13.50;;;2.20;69.80;;;;;;5011446;28;20025;-84
2022/01/15 03:05:53;;;;;;;30.87;13.43;;;2.20;70.00;;;;;;4997248;28;20109;-85
2022/01/15 03:08:18;;;;;;;32.67;13.70;;;2.10;70.20;;;;;;5001142;28;20456;-84
2022/01/15 03:10:44;;;;;;;26.93;12.07;;;2.10;70.30;;;;;;5007515;28;20021;-84
2022/01/15 03:13:12;;;;;;;20.20;11.73;;;2.10;70.50;;;;;;4970855;28;20026;-84
2022/01/15 03:15:39;;;;;;;30.57;12.20;;;2.10;70.60;;;;;;4991573;28;20048;-84
2022/01/15 03:18:05;;;;;;;44.63;12.70;;;2.10;70.60;;;;;;4991879;28;20564;-84
2022/01/15 03:20:31;;;;;;;29.30;12.37;;;2.10;70.90;;;;;;4987184;28;20142;-84
2022/01/15 03:22:57;;;;;;;41.00;12.50;;;2.10;70.80;;;;;;4990619;28;20018;-84
2022/01/15 03:25:22;;;;;;;139.33;15.17;;;2.20;70.70;;;;;;4983150;28;20081;-85
2022/01/15 03:27:48;;;;;;;59.77;14.33;;;2.20;70.50;;;;;;4990857;28;20116;-84
2022/01/15 03:30:14;;;;;;;63.27;13.23;;;2.20;70.60;;;;;;4990224;28;20026;-85
2022/01/15 03:32:44;;;;;;;23.20;12.67;;;2.20;70.60;;;;;;4986725;28;20022;-85
2022/01/15 03:35:13;;;;;;;34.67;12.77;;;2.10;70.60;;;;;;4982616;28;20464;-84
2022/01/15 03:37:40;;;;;;;35.07;12.47;;;2.10;70.80;;;;;;4990400;28;20026;-84
2022/01/15 03:40:09;;;;;;;36.50;13.40;;;2.10;70.80;;;;;;4985734;28;20035;-84
2022/01/15 03:42:35;;;;;;;20.93;12.77;;;2.20;70.80;;;;;;4990405;28;20058;-84
2022/01/15 03:45:01;;;;;;;21.73;12.60;;;2.10;70.80;;;;;;4993614;28;20132;-85
2022/01/15 03:47:27;;;;;;;27.63;13.47;;;2.20;70.80;;;;;;4995639;28;20054;-84
2022/01/15 03:49:53;;;;;;;24.70;11.23;;;2.20;70.70;;;;;;4989578;28;20114;-85
2022/01/15 03:52:18;;;;;;;18.27;11.53;;;2.20;70.70;;;;;;4991009;28;20034;-85
2022/01/15 03:54:46;;;;;;;28.80;11.53;;;2.20;70.70;;;;;;4994901;28;20428;-84
2022/01/15 03:57:19;;;;;;;20.77;11.67;;;2.20;70.80;;;;;;4990906;28;20089;-85
2022/01/15 03:59:45;;;;;;;19.10;10.70;;;2.20;70.80;;;;;;4985365;28;20027;-84
2022/01/15 04:02:13;;;;;;;16.10;10.47;;;2.20;70.80;;;;;;4991413;28;20049;-84
2022/01/15 04:04:39;;;;;;;18.70;10.63;;;2.20;70.80;;;;;;4978201;28;20034;-84
2022/01/15 04:07:05;;;;;;;15.77;9.67;;;2.20;70.60;;;;;;4993388;28;20034;-84
2022/01/15 04:09:31;;;;;;;17.80;9.77;;;2.10;70.80;;;;;;4987633;28;20037;-85
2022/01/15 04:11:56;;;;;;;16.77;9.10;;;2.10;71.00;;;;;;4995353;28;20031;-84
2022/01/15 04:14:22;;;;;;;22.30;10.37;;;2.20;71.60;;;;;;4995807;28;20037;-84
2022/01/15 04:16:48;;;;;;;18.97;9.80;;;2.20;70.80;;;;;;4993133;28;20437;-84
2022/01/15 04:19:14;;;;;;;19.77;11.20;;;2.20;70.80;;;;;;4992848;28;20033;-84
2022/01/15 04:21:39;;;;;;;20.03;11.33;;;2.20;70.70;;;;;;5006013;28;20050;-84
2022/01/15 04:24:05;;;;;;;21.30;10.40;;;2.20;70.90;;;;;;4992621;28;20034;-85
2022/01/15 04:26:31;;;;;;;17.33;9.17;;;2.10;70.90;;;;;;4990986;28;20069;-85
2022/01/15 04:29:05;;;;;;;13.10;7.83;;;2.10;71.10;;;;;;4990916;28;20034;-84
2022/01/15 04:31:46;;;;;;;13.90;7.50;;;2.10;71.10;;;;;;4994137;28;20545;-84
2022/01/15 04:34:14;;;;;;;13.90;7.73;;;2.20;70.80;;;;;;4983343;28;20497;-84
2022/01/15 04:36:40;;;;;;;9.97;7.80;;;2.20;70.90;;;;;;4993440;28;20057;-84
2022/01/15 04:39:06;;;;;;;15.30;9.30;;;2.30;70.70;;;;;;4994311;28;20062;-85
2022/01/15 04:41:32;;;;;;;13.27;8.33;;;2.30;70.50;;;;;;4994817;28;20031;-84
2022/01/15 04:43:57;;;;;;;13.57;7.97;;;2.30;70.30;;;;;;4994094;28;20031;-85
2022/01/15 04:46:23;;;;;;;11.77;7.83;;;2.30;70.50;;;;;;4989593;28;20034;-84
2022/01/15 04:48:49;;;;;;;14.40;8.10;;;2.30;70.70;;;;;;4989426;28;20030;-84
2022/01/15 04:51:14;;;;;;;12.70;7.80;;;2.30;70.70;;;;;;4995004;28;20034;-84
2022/01/15 04:53:40;;;;;;;17.93;9.60;;;2.30;70.60;;;;;;4992815;28;20057;-84
2022/01/15 04:56:06;;;;;;;17.70;9.43;;;2.30;70.50;;;;;;4994681;28;20444;-84
2022/01/15 04:58:31;;;;;;;13.57;8.00;;;2.40;70.60;;;;;;4993670;28;20425;-84
2022/01/15 05:00:57;;;;;;;12.77;7.63;;;2.30;70.70;;;;;;4975125;28;20034;-85
2022/01/15 05:03:23;;;;;;;14.17;8.83;;;2.30;70.50;;;;;;4990124;28;20026;-84
2022/01/15 05:05:48;;;;;;;15.57;7.80;;;2.30;70.60;;;;;;4993865;28;20038;-84
2022/01/15 05:08:14;;;;;;;10.73;7.40;;;2.20;70.60;;;;;;4993859;28;20038;-85
2022/01/15 05:10:46;;;;;;;12.30;7.07;;;2.20;70.60;;;;;;4995057;28;20030;-85
2022/01/15 05:13:20;;;;;;;15.60;9.63;;;2.20;70.60;;;;;;4991571;28;20030;-84
2022/01/15 05:15:46;;;;;;;11.30;7.57;;;2.20;70.50;;;;;;4993675;28;20062;-84
2022/01/15 05:18:12;;;;;;;12.60;7.17;;;2.20;70.70;;;;;;4984016;28;20065;-85
2022/01/15 05:20:43;;;;;;;14.33;6.73;;;2.20;70.50;;;;;;4993638;28;20405;-84
2022/01/15 05:23:09;;;;;;;11.40;6.63;;;2.20;70.30;;;;;;4990599;28;20453;-84
2022/01/15 05:25:35;;;;;;;16.27;8.37;;;2.20;70.20;;;;;;4989466;28;20038;-84
2022/01/15 05:28:02;;;;;;;16.17;9.23;;;2.20;70.20;;;;;;4993048;28;20397;-84
2022/01/15 05:30:30;;;;;;;38.10;21.93;;;2.20;70.20;;;;;;4993240;28;20022;-84
2022/01/15 05:32:56;;;;;;;25.87;15.33;;;2.20;70.20;;;;;;4993209;28;20045;-84
2022/01/15 05:35:26;;;;;;;22.43;12.83;;;2.10;70.20;;;;;;4993423;28;20446;-84
2022/01/15 05:37:56;;;;;;;75.33;39.10;;;2.10;70.20;;;;;;4994965;28;20014;-84
2022/01/15 05:40:23;;;;;;;28.40;16.07;;;2.20;70.10;;;;;;4985828;28;20473;-84
2022/01/15 05:42:49;;;;;;;16.20;9.03;;;2.20;70.10;;;;;;4987982;28;20581;-85
2022/01/15 05:45:15;;;;;;;16.70;9.67;;;2.20;70.00;;;;;;4992625;28;20040;-84
2022/01/15 05:47:41;;;;;;;14.80;7.63;;;2.10;69.90;;;;;;4992884;28;20033;-84
2022/01/15 05:50:08;;;;;;;12.53;6.47;;;2.10;69.80;;;;;;4994364;28;20503;-84
2022/01/15 05:52:34;;;;;;;12.87;7.53;;;2.10;69.80;;;;;;4976027;28;20023;-85
2022/01/15 05:55:00;;;;;;;10.97;6.90;;;2.00;69.70;;;;;;4987192;28;20118;-84
2022/01/15 05:57:26;;;;;;;8.13;5.73;;;2.00;69.70;;;;;;4976048;28;20019;-84
2022/01/15 05:59:52;;;;;;;14.40;7.90;;;1.90;69.50;;;;;;4994385;28;20025;-84
2022/01/15 06:02:18;;;;;;;12.93;9.10;;;2.00;69.60;;;;;;4993028;28;20022;-84
2022/01/15 06:04:44;;;;;;;14.50;9.73;;;2.00;69.60;;;;;;4999679;28;20022;-84
2022/01/15 06:07:10;;;;;;;11.17;7.87;;;1.90;69.50;;;;;;4993703;28;20032;-84
2022/01/15 06:09:36;;;;;;;14.53;8.73;;;1.90;69.40;;;;;;4992625;28;20030;-84
2022/01/15 06:12:02;;;;;;;13.63;8.43;;;1.90;69.40;;;;;;4993959;28;20508;-84
2022/01/15 06:14:29;;;;;;;20.00;9.87;;;1.90;69.40;;;;;;4992361;28;20077;-84
2022/01/15 06:16:55;;;;;;;14.50;8.57;;;1.80;69.50;;;;;;4983203;28;20052;-84
2022/01/15 06:19:21;;;;;;;14.40;9.07;;;1.90;69.40;;;;;;4984430;28;20042;-84
2022/01/15 06:21:47;;;;;;;15.53;9.17;;;1.90;69.20;;;;;;4994352;28;20058;-84
2022/01/15 06:24:13;;;;;;;16.57;10.07;;;1.90;69.20;;;;;;4992796;28;20034;-84
2022/01/15 06:26:38;;;;;;;22.60;11.33;;;1.80;69.00;;;;;;4992605;28;20022;-84
2022/01/15 06:29:04;;;;;;;19.93;12.33;;;1.80;69.10;;;;;;4982813;28;20028;-84
2022/01/15 06:31:31;;;;;;;18.70;11.90;;;1.80;69.10;;;;;;4992630;28;20444;-84
2022/01/15 06:33:57;;;;;;;12.30;8.60;;;1.80;69.20;;;;;;4987605;28;20042;-84
2022/01/15 06:36:23;;;;;;;14.57;9.13;;;1.80;69.20;;;;;;4977249;28;20481;-84
2022/01/15 06:38:49;;;;;;;12.53;8.03;;;1.80;69.20;;;;;;4992533;28;20029;-84
2022/01/15 06:41:15;;;;;;;12.87;7.93;;;1.80;69.10;;;;;;4992552;28;20030;-84
2022/01/15 06:43:41;;;;;;;13.97;8.50;;;1.80;69.30;;;;;;4993887;28;20034;-84
2022/01/15 06:46:07;;;;;;;14.80;8.77;;;1.80;69.40;;;;;;4993510;28;20033;-84
2022/01/15 06:48:33;;;;;;;16.60;10.07;;;1.70;69.20;;;;;;4992210;28;20022;-84
2022/01/15 06:50:59;;;;;;;18.57;11.73;;;1.80;69.40;;;;;;4992424;28;20109;-84
2022/01/15 06:53:25;;;;;;;16.43;9.80;;;1.80;69.20;;;;;;4992340;28;20038;-84
2022/01/15 06:55:52;;;;;;;16.83;11.13;;;1.70;69.20;;;;;;4975004;28;20367;-84
2022/01/15 06:58:19;;;;;;;20.50;11.87;;;1.70;69.40;;;;;;4979362;28;20750;-84
2022/01/15 07:00:45;;;;;;;15.43;11.07;;;1.70;69.30;;;;;;4993620;28;20113;-84
2022/01/15 07:03:11;;;;;;;23.77;13.53;;;1.70;69.30;;;;;;4992472;28;20191;-83
2022/01/15 07:05:36;;;;;;;19.40;12.60;;;1.70;69.20;;;;;;4992219;28;20034;-84
2022/01/15 07:08:02;;;;;;;18.87;12.77;;;1.70;69.30;;;;;;4990322;28;20034;-84
2022/01/15 07:10:28;;;;;;;25.00;12.77;;;1.70;69.10;;;;;;4980542;28;20052;-83
2022/01/15 07:12:54;;;;;;;21.27;12.43;;;1.70;69.10;;;;;;4988493;28;20034;-84
2022/01/15 07:15:20;;;;;;;22.27;13.47;;;1.70;69.00;;;;;;4976246;28;20038;-84
2022/01/15 07:17:47;;;;;;;30.03;15.37;;;1.70;69.00;;;;;;4984344;28;20019;-84
2022/01/15 07:20:15;;;;;;;25.63;14.43;;;1.70;69.00;;;;;;4984932;28;20077;-84
2022/01/15 07:22:42;;;;;;;24.83;14.50;;;1.70;69.10;;;;;;4991585;28;20276;-84
2022/01/15 07:25:09;;;;;;;21.17;12.97;;;1.70;68.90;;;;;;4992634;28;20033;-81
2022/01/15 07:27:35;;;;;;;22.63;13.00;;;1.60;69.00;;;;;;4985829;28;20023;-84
2022/01/15 07:30:02;;;;;;;20.40;12.70;;;1.60;69.00;;;;;;4975979;28;20030;-82
2022/01/15 07:32:28;;;;;;;19.80;12.17;;;1.70;69.00;;;;;;4992019;28;20026;-83
2022/01/15 07:34:53;;;;;;;20.37;12.17;;;1.60;68.90;;;;;;4991050;28;20105;-83
2022/01/15 07:37:19;;;;;;;18.57;12.53;;;1.60;68.90;;;;;;4991745;28;20593;-83
2022/01/15 07:39:45;;;;;;;23.60;13.87;;;1.60;69.10;;;;;;4991431;28;20022;-83
2022/01/15 07:42:11;;;;;;;24.70;13.57;;;1.60;69.00;;;;;;4992124;28;20019;-83
2022/01/15 07:44:37;;;;;;;21.73;13.37;;;1.60;69.00;;;;;;4991387;28;20476;-84
2022/01/15 07:47:03;;;;;;;26.07;15.97;;;1.60;68.90;;;;;;4988094;28;20481;-84
2022/01/15 07:49:29;;;;;;;33.13;21.90;;;1.60;68.80;;;;;;4989432;28;20512;-83
2022/01/15 07:51:54;;;;;;;30.00;17.70;;;1.60;68.90;;;;;;4990608;28;20034;-84
2022/01/15 07:54:21;;;;;;;31.37;18.40;;;1.60;69.00;;;;;;4983919;28;20030;-84
2022/01/15 07:56:46;;;;;;;36.53;21.47;;;1.60;68.90;;;;;;4992949;28;21626;-84
2022/01/15 07:59:12;;;;;;;26.50;15.97;;;1.60;69.50;;;;;;4989172;28;20027;-84
2022/01/15 08:01:38;;;;;;;39.30;19.87;;;1.60;69.00;;;;;;4987377;28;20022;-84
2022/01/15 08:04:04;;;;;;;36.17;20.07;;;1.60;68.90;;;;;;4994101;28;20057;-83
2022/01/15 08:06:29;;;;;;;34.10;19.37;;;1.60;68.80;;;;;;4985600;28;20030;-84
2022/01/15 08:08:55;;;;;;;34.17;20.70;;;1.60;68.80;;;;;;4988927;28;20030;-84
2022/01/15 08:11:21;;;;;;;26.03;15.83;;;1.60;68.90;;;;;;4989475;28;20042;-83
2022/01/15 08:13:47;;;;;;;29.17;16.80;;;1.60;68.90;;;;;;4980208;28;20445;-84
2022/01/15 08:16:13;;;;;;;30.53;16.93;;;1.60;68.90;;;;;;4977301;28;20502;-84
2022/01/15 08:18:38;;;;;;;23.57;15.40;;;1.60;68.80;;;;;;4986173;28;20029;-84
2022/01/15 08:21:05;;;;;;;26.63;15.43;;;1.60;68.80;;;;;;4984868;28;20034;-84
2022/01/15 08:23:32;;;;;;;24.60;16.23;;;1.70;68.90;;;;;;4987899;28;20022;-84
2022/01/15 08:25:58;;;;;;;24.27;15.13;;;1.70;68.80;;;;;;4983411;28;20029;-84
2022/01/15 08:28:25;;;;;;;25.50;16.30;;;1.70;68.60;;;;;;4987414;28;20018;-83
2022/01/15 08:30:51;;;;;;;25.70;17.53;;;1.70;68.60;;;;;;4988863;28;20034;-84
2022/01/15 08:33:16;;;;;;;29.40;18.57;;;1.60;68.60;;;;;;4988611;28;20027;-84
2022/01/15 08:35:42;;;;;;;29.07;17.27;;;1.70;68.90;;;;;;4990225;28;20524;-84
2022/01/15 08:38:08;;;;;;;27.97;17.70;;;1.80;68.80;;;;;;4993093;28;20474;-84
2022/01/15 08:40:34;;;;;;;43.20;19.03;;;1.80;68.80;;;;;;4990337;28;20030;-83
2022/01/15 08:43:01;;;;;;;107.83;30.53;;;1.80;68.60;;;;;;4992504;28;20146;-84
2022/01/15 08:45:27;;;;;;;57.83;24.20;;;1.80;68.60;;;;;;4990441;28;20026;-84
2022/01/15 08:47:54;;;;;;;94.13;29.47;;;1.80;68.70;;;;;;4991374;28;20593;-84
2022/01/15 08:50:20;;;;;;;85.20;28.53;;;1.80;68.60;;;;;;4985448;28;20034;-83
2022/01/15 08:52:46;;;;;;;97.67;27.70;;;1.80;68.60;;;;;;4989382;28;20036;-84
2022/01/15 08:55:12;;;;;;;43.90;23.17;;;1.80;68.60;;;;;;4985409;28;20512;-84
2022/01/15 08:57:38;;;;;;;35.53;21.63;;;1.80;68.80;;;;;;4989609;28;20034;-84
2022/01/15 09:00:07;;;;;;;35.70;21.70;;;1.90;68.90;;;;;;4990609;28;20109;-84
2022/01/15 09:02:33;;;;;;;31.07;20.10;;;2.00;69.10;;;;;;4981190;28;20394;-84
2022/01/15 09:04:59;;;;;;;39.43;21.40;;;2.10;69.20;;;;;;4991710;28;20026;-84
2022/01/15 09:07:24;;;;;;;65.87;30.37;;;2.20;69.50;;;;;;4987265;28;20058;-84
2022/01/15 09:09:50;;;;;;;60.40;27.33;;;2.20;68.90;;;;;;4990760;28;20026;-84
2022/01/15 09:12:17;;;;;;;45.07;24.73;;;2.10;68.80;;;;;;4990535;28;20041;-84
2022/01/15 09:14:43;;;;;;;42.23;23.03;;;2.10;68.80;;;;;;4986550;28;20089;-84
2022/01/15 09:17:09;;;;;;;51.43;25.77;;;2.00;68.90;;;;;;4993347;28;20073;-84
2022/01/15 09:19:35;;;;;;;33.53;17.43;;;2.10;69.10;;;;;;4990130;28;20061;-84
2022/01/15 09:22:05;;;;;;;33.90;17.83;;;2.10;69.10;;;;;;4995501;28;20033;-84
2022/01/15 09:24:31;;;;;;;32.67;17.87;;;2.10;69.40;;;;;;4993797;28;20091;-84
2022/01/15 09:32:07;;;;;;;40.17;24.03;;;2.60;69.50;;;;;;5013374;28;20499;-84
2022/01/15 09:34:34;;;;;;;37.60;21.50;;;2.80;68.80;;;;;;4997293;28;20077;-85
2022/01/15 09:37:01;;;;;;;30.83;15.93;;;2.90;68.80;;;;;;4994146;28;20457;-85
2022/01/15 09:39:27;;;;;;;25.30;15.70;;;3.10;68.90;;;;;;4989746;28;20066;-85
2022/01/15 09:41:55;;;;;;;24.33;14.30;;;3.30;68.70;;;;;;4992180;28;20072;-85
2022/01/15 09:44:22;;;;;;;21.10;13.70;;;3.50;68.70;;;;;;5001699;28;20060;-85
2022/01/15 09:46:49;;;;;;;25.20;13.93;;;3.70;68.50;;;;;;4997916;28;20065;-85
2022/01/15 09:49:16;;;;;;;19.57;12.87;;;3.70;68.60;;;;;;4999388;28;20033;-85
2022/01/15 09:51:43;;;;;;;25.00;14.03;;;3.90;68.70;;;;;;5007453;28;20385;-85
2022/01/15 09:54:09;;;;;;;22.97;13.80;;;4.00;68.40;;;;;;4995752;28;20087;-85
2022/01/15 09:56:35;;;;;;;21.97;13.23;;;4.20;68.20;;;;;;4990472;28;20568;-86
2022/01/15 09:59:02;;;;;;;22.30;13.20;;;4.30;68.00;;;;;;4995964;28;20028;-86
2022/01/15 10:01:30;;;;;;;21.00;13.07;;;4.40;67.70;;;;;;5005912;28;20116;-86
2022/01/15 10:03:57;;;;;;;19.13;12.80;;;4.50;67.80;;;;;;4993630;28;20184;-86
2022/01/15 10:06:23;;;;;;;19.23;12.80;;;4.60;67.50;;;;;;5001949;28;20026;-86
2022/01/15 10:09:06;;;;;;;18.37;11.30;;;4.80;67.60;;;;;;4996322;28;20098;-86
2022/01/15 10:11:44;;;;;;;16.47;12.33;;;5.00;67.20;;;;;;4996933;28;20029;-86
2022/01/15 10:14:27;;;;;;;18.67;12.07;;;5.10;66.70;;;;;;4996999;28;20485;-86
2022/01/15 10:16:55;;;;;;;19.70;12.30;;;5.30;66.60;;;;;;5015643;28;20100;-86
2022/01/15 10:19:39;;;;;;;16.43;11.37;;;5.50;66.50;;;;;;5015544;28;20227;-86
2022/01/15 10:22:16;;;;;;;17.73;11.13;;;5.70;66.00;;;;;;4994073;28;20047;-86
2022/01/15 10:24:50;;;;;;;17.57;10.60;;;5.90;66.00;;;;;;4982856;28;20022;-87
2022/01/15 10:27:26;;;;;;;21.13;12.37;;;6.00;65.40;;;;;;5016079;28;20060;-87
2022/01/15 10:29:59;;;;;;;20.33;12.53;;;6.20;65.30;;;;;;5001002;28;20056;-87
2022/01/15 10:32:28;;;;;;;22.93;12.27;;;6.40;64.90;;;;;;4995800;28;20041;-87
2022/01/15 10:34:54;;;;;;;18.20;12.10;;;6.50;64.60;;;;;;4994973;28;20034;-87
2022/01/15 10:37:23;;;;;;;16.57;11.27;;;6.40;64.40;;;;;;4995144;28;20485;-87
2022/01/15 10:40:11;;;;;;;16.60;11.00;;;6.60;64.30;;;;;;4995217;28;20026;-87
2022/01/15 10:42:38;;;;;;;16.10;10.67;;;6.70;63.90;;;;;;4995539;28;20022;-87
2022/01/15 10:45:14;;;;;;;15.80;10.50;;;6.80;63.70;;;;;;4995505;28;20105;-87
2022/01/15 10:47:48;;;;;;;15.70;10.37;;;7.10;63.30;;;;;;4995997;28;20030;-87
2022/01/15 10:50:27;;;;;;;15.47;10.57;;;7.30;63.20;;;;;;4995861;28;20121;-88
2022/01/15 10:52:55;;;;;;;16.33;10.63;;;7.30;62.40;;;;;;4994572;28;20492;-87
2022/01/15 10:55:32;;;;;;;16.43;10.17;;;7.20;62.30;;;;;;4993569;28;20030;-87
2022/01/15 10:58:11;;;;;;;17.27;12.10;;;7.20;62.70;;;;;;4994089;28;20057;-87
2022/01/15 11:00:37;;;;;;;17.53;12.10;;;7.30;62.60;;;;;;4994080;28;20383;-87
2022/01/15 11:03:17;;;;;;;17.40;11.70;;;7.30;62.60;;;;;;4994830;28;20117;-87
2022/01/15 11:05:52;;;;;;;16.17;11.00;;;7.30;62.50;;;;;;4995032;28;20476;-87
2022/01/15 11:08:21;;;;;;;16.93;10.87;;;7.50;62.30;;;;;;4994713;28;20499;-87
2022/01/15 11:10:48;;;;;;;15.60;10.27;;;7.50;62.10;;;;;;4994242;28;20109;-88
2022/01/15 11:13:16;;;;;;;15.77;10.13;;;7.60;61.90;;;;;;5012695;28;20030;-87
2022/01/15 11:15:44;;;;;;;14.33;10.77;;;7.60;61.80;;;;;;4994080;28;20038;-87
2022/01/15 11:18:23;;;;;;;17.20;9.87;;;7.70;61.70;;;;;;4994928;28;20026;-87
2022/01/15 11:20:54;;;;;;;16.53;10.83;;;7.90;61.20;;;;;;4986038;28;20033;-87
2022/01/15 11:23:23;;;;;;;13.73;9.33;;;8.00;61.30;;;;;;4995633;28;20030;-87
2022/01/15 11:25:51;;;;;;;13.23;9.30;;;8.10;61.00;;;;;;5007969;28;20033;-87
2022/01/15 11:28:19;;;;;;;12.80;9.13;;;8.10;60.50;;;;;;5010936;28;20033;-87
2022/01/15 11:30:46;;;;;;;16.03;9.73;;;8.20;60.40;;;;;;4993319;28;20044;-86
2022/01/15 11:33:13;;;;;;;17.87;10.93;;;8.30;60.20;;;;;;4998414;28;20048;-87
2022/01/15 11:35:47;;;;;;;14.27;10.90;;;8.40;60.20;;;;;;5004138;28;20061;-86
2022/01/15 11:38:45;;;;;;;14.80;10.23;;;8.50;59.80;;;;;;4998727;28;20524;-86
2022/01/15 11:41:26;;;;;;;14.57;10.00;;;8.50;59.50;;;;;;5013345;28;20431;-87
2022/01/15 11:43:57;;;;;;;16.17;10.47;;;8.60;59.70;;;;;;4995368;28;20034;-86
2022/01/15 11:46:23;;;;;;;14.93;10.20;;;8.60;59.60;;;;;;4992739;28;20040;-86
2022/01/15 11:48:49;;;;;;;21.10;13.03;;;8.60;59.40;;;;;;5012644;28;20022;-86
2022/01/15 11:51:14;;;;;;;18.67;12.17;;;8.60;59.30;;;;;;5001007;28;20041;-87
2022/01/15 11:53:47;;;;;;;16.50;11.43;;;8.70;59.40;;;;;;4995654;28;20508;-86
2022/01/15 11:56:14;;;;;;;;;;;8.80;59.30;;;;;;4996191;28;20033;-86
2022/01/15 11:58:39;;;;;;;19.37;12.20;;;8.90;59.40;;;;;;4991144;28;19912;-86
2022/01/15 12:01:05;;;;;;;19.77;11.20;;;9.00;59.00;;;;;;4995799;28;20540;-86
2022/01/15 12:03:39;;;;;;;13.97;10.30;;;9.10;58.90;;;;;;4996731;28;20022;-86
2022/01/15 12:06:04;;;;;;;15.50;9.50;;;9.10;58.80;;;;;;4999354;28;20026;-86
2022/01/15 12:08:32;;;;;;;14.40;9.80;;;9.10;58.90;;;;;;4999025;28;20439;-86
2022/01/15 12:10:59;;;;;;;17.40;11.30;;;9.20;58.60;;;;;;4996327;28;20109;-86
2022/01/15 12:13:34;;;;;;;19.60;11.70;;;9.10;58.40;;;;;;4981251;28;20027;-86
2022/01/15 12:16:26;;;;;;;16.17;10.43;;;9.10;58.70;;;;;;4979351;28;20042;-86
2022/01/15 12:18:53;;;;;;;16.23;11.17;;;9.20;58.80;;;;;;4989147;28;20037;-85
2022/01/15 12:21:41;;;;;;;17.23;11.43;;;9.20;59.00;;;;;;5002054;28;20026;-85
2022/01/15 12:24:36;;;;;;;16.77;11.20;;;9.20;58.40;;;;;;5001090;28;20065;-85
2022/01/15 12:27:04;;;;;;;15.27;10.63;;;9.30;58.50;;;;;;5015130;28;20025;-87
2022/01/15 12:29:30;;;;;;;15.40;10.37;;;9.30;58.50;;;;;;5016211;28;20022;-86
2022/01/15 12:31:55;;;;;;;15.33;10.90;;;9.40;59.10;;;;;;4998517;28;20037;-86
2022/01/15 12:34:28;;;;;;;15.93;10.67;;;9.30;58.00;;;;;;4998806;28;20092;-86
2022/01/15 12:36:55;;;;;;;15.90;10.43;;;9.30;58.20;;;;;;4986091;28;20025;-86
2022/01/15 12:39:37;;;;;;;15.80;9.67;;;9.40;58.20;;;;;;5007854;28;20029;-86
2022/01/15 12:42:04;;;;;;;12.23;8.90;;;9.50;58.10;;;;;;5001013;28;20056;-86
2022/01/15 12:44:30;;;;;;;13.17;9.17;;;9.50;58.10;;;;;;5009893;28;20389;-86
2022/01/15 12:46:59;;;;;;;13.33;9.17;;;9.50;58.00;;;;;;4999333;28;20029;-86
2022/01/15 12:49:36;;;;;;;14.20;9.90;;;9.50;57.90;;;;;;4998617;28;20661;-86
2022/01/15 12:52:13;;;;;;;14.70;9.37;;;9.40;57.90;;;;;;4998880;28;20026;-86
2022/01/15 12:54:39;;;;;;;13.13;8.50;;;9.40;58.00;;;;;;5001354;28;20026;-86
2022/01/15 12:57:05;;;;;;;13.23;9.23;;;9.40;58.50;;;;;;5003013;28;20122;-86
2022/01/15 12:59:33;;;;;;;12.70;8.97;;;9.40;57.80;;;;;;5002929;28;20476;-86
2022/01/15 13:02:01;;;;;;;15.67;9.60;;;9.30;58.00;;;;;;5019973;28;20033;-86
2022/01/15 13:04:27;;;;;;;13.47;9.73;;;9.40;57.80;;;;;;5012317;28;20022;-85
2022/01/15 13:07:01;;;;;;;14.10;8.87;;;9.40;57.70;;;;;;5009490;28;20026;-86
2022/01/15 13:09:44;;;;;;;13.53;8.90;;;9.30;57.30;;;;;;4998754;28;20029;-86